Mactan Cebu International Airport
RPVM : now visible

Airfield :











YOU CAN JOIN US ON...

 
LOGIN :

Register | Disclaimer

   EN    FR    IT 

 









Legend :    VFR   Marginal VFR   IFR   Intensive IFR   Very Intensive IFR
Visi :
Ceiling :
>= 8 km
>= 3000ft
5 to 8 km
1000 to 3000 ft
1500m to 5 km
500 to 1000 ft
800 to 1500m
200 to 500 ft
< 800m
< 200 ft
Symbols :   Thunderstorms  Fog  Heavy snow  Heavy precipitations  Wind > 20 kt







- Airport Elevation : 31 ft
- IATA code : CEB


RPVM - Mactan Cebu International

CURRENT METAR :
  • 210500Z 04008KT 9999 FEW020 29/17 Q1016 RMK A3000

EXPIRED METARs :
  • 210400Z 04009KT 9999 FEW020 29/17 Q1017 RMK A3003
  • 210300Z 04010KT 9999 FEW020 SCT300 29/18 Q1017 RMK A3003

TAF TAF RPVM
Valid from the 21 at 06:00 until the 22 at 12:00 UTC


210500Z 2106/2212 04008KT 9999 FEW020 SCT300
TEMPO 2106/2112 03012KT FEW020 SCT100
TEMPO 2112/2118 35004KT FEW020 SCT100
RPHI FIR / Asia



MET'MAP, your aeronautical weather chart ! - Copyright ORBIFLY December 2007 - Disclaimer

ORBIFLY MET'MAP TEAM :

Programming & Development : Alexandra Zaïnal
Concept & Development : Baudouin d'Aumeries
Co-Development & Prog : Marc-Olivier Méhu
Technical & hardware support : Manuel Goepfert

Contact : metmap@orbifly.com




SOURCES & CREDITS :

   NOAA       Earth
Advisory